Time;durP1;ratioP1;P1;durP2;ratioP2;P2;SDS_P1;SDS_P2;PMS_P1;PMS_P2;Temp;Humidity;BMP_temperature;BMP_pressure;BME280_temperature;BME280_humidity;BME280_pressure;Samples;Min_cycle;Max_cycle;Signal;HPM_P1;HPM_P2
2021/12/19 00:10:43;;;;;;;13.40;4.30;;;7.50;99.90;;;;;;4954586;28;20330;-63
2021/12/19 00:13:12;;;;;;;16.03;4.77;;;7.50;99.90;;;;;;4955029;28;20238;-63
2021/12/19 00:15:41;;;;;;;10.83;4.70;;;7.50;99.90;;;;;;4954926;28;20263;-63
2021/12/19 00:18:09;;;;;;;11.27;5.00;;;7.50;99.90;;;;;;4954730;28;20325;-63
2021/12/19 00:20:38;;;;;;;10.97;4.83;;;7.50;99.90;;;;;;4962043;28;20740;-63
2021/12/19 00:23:27;;;;;;;16.23;5.23;;;7.50;99.90;;;;;;4969080;28;20270;-63
2021/12/19 00:25:55;;;;;;;14.00;4.63;;;7.50;99.90;;;;;;4974125;28;20243;-63
2021/12/19 00:28:23;;;;;;;18.87;5.47;;;7.50;99.90;;;;;;4960016;28;20263;-63
2021/12/19 00:30:52;;;;;;;18.43;5.70;;;7.50;99.90;;;;;;4954595;28;20242;-63
2021/12/19 00:33:20;;;;;;;9.50;5.20;;;7.50;99.90;;;;;;4928315;28;20334;-63
2021/12/19 00:36:05;;;;;;;14.73;4.65;;;7.50;99.90;;;;;;789141;28;10002556;-63
2021/12/19 00:38:35;;;;;;;20.90;6.20;;;7.50;99.90;;;;;;4972889;28;21001;-63
2021/12/19 00:41:04;;;;;;;14.60;5.43;;;7.50;99.90;;;;;;4973612;28;20293;-63
2021/12/19 00:43:36;;;;;;;14.47;5.33;;;7.50;99.90;;;;;;4958225;28;20262;-63
2021/12/19 00:46:07;;;;;;;11.97;4.90;;;7.50;99.90;;;;;;4964678;28;20305;-63
2021/12/19 00:48:37;;;;;;;13.43;5.47;;;7.50;99.90;;;;;;4973207;28;20269;-63
2021/12/19 00:51:08;;;;;;;13.67;5.00;;;7.50;99.90;;;;;;4973599;28;20238;-63
2021/12/19 00:53:37;;;;;;;11.93;4.97;;;7.50;99.90;;;;;;4958190;28;20647;-64
2021/12/19 00:56:06;;;;;;;13.67;4.83;;;7.50;99.90;;;;;;4954307;28;20239;-63
2021/12/19 00:58:34;;;;;;;17.83;5.13;;;7.50;99.90;;;;;;4969130;28;20261;-63
2021/12/19 01:01:04;;;;;;;16.30;4.70;;;7.50;99.90;;;;;;4973537;28;20238;-63
2021/12/19 01:03:32;;;;;;;17.97;5.50;;;7.50;99.90;;;;;;4958201;28;20703;-63
2021/12/19 01:06:01;;;;;;;18.23;5.30;;;7.60;99.90;;;;;;4954175;28;20326;-63
2021/12/19 01:08:30;;;;;;;14.13;6.20;;;7.50;99.90;;;;;;4967943;28;20273;-63
2021/12/19 01:10:58;;;;;;;14.40;5.57;;;7.50;99.90;;;;;;4973096;28;20265;-63
2021/12/19 01:13:27;;;;;;;19.00;6.57;;;7.50;99.90;;;;;;4958395;28;20235;-63
2021/12/19 01:15:57;;;;;;;18.37;5.70;;;7.50;99.90;;;;;;4966473;28;20245;-63
2021/12/19 01:18:25;;;;;;;14.87;6.67;;;7.50;99.90;;;;;;4970997;28;20317;-63
2021/12/19 01:20:54;;;;;;;19.07;5.60;;;7.50;99.90;;;;;;4973261;28;20241;-63
2021/12/19 01:23:23;;;;;;;12.87;5.70;;;7.60;99.90;;;;;;4972809;28;20238;-63
2021/12/19 01:25:52;;;;;;;21.70;5.97;;;7.60;99.90;;;;;;4973017;28;20658;-63
2021/12/19 01:28:21;;;;;;;18.63;6.33;;;7.50;99.90;;;;;;4972752;28;20235;-63
2021/12/19 01:30:49;;;;;;;15.90;5.83;;;7.50;99.90;;;;;;4972783;28;20315;-63
2021/12/19 01:33:17;;;;;;;12.87;5.80;;;7.50;99.90;;;;;;4972571;28;20289;-63
2021/12/19 01:35:45;;;;;;;12.97;5.57;;;7.50;99.90;;;;;;4971254;28;20852;-63
2021/12/19 01:38:14;;;;;;;17.97;5.37;;;7.50;99.90;;;;;;4969081;28;20242;-62
2021/12/19 01:40:42;;;;;;;18.03;6.10;;;7.60;99.90;;;;;;4972464;28;20321;-63
2021/12/19 01:43:11;;;;;;;17.33;6.13;;;7.60;99.90;;;;;;4970350;28;20242;-63
2021/12/19 01:45:41;;;;;;;19.47;6.40;;;7.50;99.90;;;;;;4964104;28;20254;-63
2021/12/19 01:48:11;;;;;;;12.40;6.40;;;7.60;99.90;;;;;;4972349;28;20341;-63
2021/12/19 01:50:40;;;;;;;19.23;5.83;;;7.60;99.90;;;;;;4972438;28;20293;-63
2021/12/19 01:53:12;;;;;;;20.87;6.73;;;7.60;99.90;;;;;;4964568;28;20272;-63
2021/12/19 01:55:41;;;;;;;21.10;7.10;;;7.60;99.90;;;;;;4933915;28;20234;-63
2021/12/19 01:58:11;;;;;;;14.47;5.90;;;7.60;99.90;;;;;;4964046;28;20301;-63
2021/12/19 02:00:41;;;;;;;16.10;6.00;;;7.60;99.90;;;;;;4972180;28;20698;-63
2021/12/19 02:03:11;;;;;;;13.07;5.70;;;7.60;99.90;;;;;;4972264;28;20246;-63
2021/12/19 02:05:40;;;;;;;19.20;5.80;;;7.60;99.90;;;;;;4972073;28;20238;-63
2021/12/19 02:08:10;;;;;;;12.03;5.33;;;7.60;99.90;;;;;;4964842;28;20235;-64
2021/12/19 02:10:40;;;;;;;22.50;6.47;;;7.60;99.90;;;;;;4972276;28;20266;-63
2021/12/19 02:13:12;;;;;;;14.30;6.27;;;7.50;99.90;;;;;;4960457;28;20243;-63
2021/12/19 02:15:42;;;;;;;16.80;5.97;;;7.60;99.90;;;;;;4952540;28;20243;-63
2021/12/19 02:18:13;;;;;;;12.47;5.03;;;7.60;99.90;;;;;;4964545;28;20239;-63
2021/12/19 02:20:44;;;;;;;19.40;5.70;;;7.60;99.90;;;;;;4972090;28;20321;-63
2021/12/19 02:23:12;;;;;;;17.00;5.13;;;7.60;99.90;;;;;;4969049;28;20606;-63
2021/12/19 02:25:41;;;;;;;20.23;5.30;;;7.60;99.90;;;;;;4950159;28;20230;-63
2021/12/19 02:28:09;;;;;;;17.83;6.00;;;7.60;99.90;;;;;;4960069;28;20265;-63
2021/12/19 02:30:38;;;;;;;13.67;5.30;;;7.60;99.90;;;;;;4952874;28;20241;-63
2021/12/19 02:33:10;;;;;;;14.87;5.60;;;7.60;99.90;;;;;;4952737;28;20271;-63
2021/12/19 02:36:01;;;;;;;15.23;5.30;;;7.60;99.90;;;;;;1065810;28;10023266;-63
2021/12/19 02:49:51;;;;;;;14.17;5.03;;;7.50;99.90;;;;;;4912073;29;20244;-63
2021/12/19 02:52:21;;;;;;;14.80;5.40;;;7.50;99.90;;;;;;4940473;28;20238;-63
2021/12/19 02:54:49;;;;;;;14.97;5.20;;;7.50;99.90;;;;;;4971938;28;20238;-63
2021/12/19 02:57:17;;;;;;;17.57;6.13;;;7.50;99.90;;;;;;4968570;28;20234;-63
2021/12/19 02:59:45;;;;;;;22.77;5.40;;;7.50;99.90;;;;;;4975543;28;20301;-63
2021/12/19 03:02:13;;;;;;;18.10;5.40;;;7.50;99.90;;;;;;4975294;28;20598;-63
2021/12/19 03:04:52;;;;;;;17.73;5.23;;;7.50;99.90;;;;;;4973644;28;20643;-63
2021/12/19 03:07:24;;;;;;;19.87;5.07;;;7.50;99.90;;;;;;4970792;28;20774;-63
2021/12/19 03:10:04;;;;;;;17.07;5.30;;;7.50;99.90;;;;;;4975379;28;20238;-63
2021/12/19 03:12:46;;;;;;;21.93;5.50;;;7.50;99.90;;;;;;4967954;28;20241;-63
2021/12/19 03:18:05;;;;;;;15.27;5.00;;;7.60;99.90;;;;;;4955874;28;20266;-63
2021/12/19 03:20:34;;;;;;;17.13;5.87;;;7.60;99.90;;;;;;4955919;28;20254;-64
2021/12/19 03:23:05;;;;;;;19.03;5.70;;;7.60;99.90;;;;;;4955847;28;20231;-63
2021/12/19 03:25:34;;;;;;;18.43;5.30;;;7.60;99.90;;;;;;4955713;28;20250;-63
2021/12/19 03:28:04;;;;;;;19.83;5.23;;;7.60;99.90;;;;;;4966464;28;20238;-63
2021/12/19 03:30:33;;;;;;;16.37;5.57;;;7.50;99.90;;;;;;4974928;28;20750;-63
2021/12/19 03:33:02;;;;;;;16.60;5.83;;;7.50;99.90;;;;;;4964338;28;20231;-63
2021/12/19 03:35:31;;;;;;;17.87;6.03;;;7.50;99.90;;;;;;4957506;28;20239;-63
2021/12/19 03:38:02;;;;;;;18.30;5.67;;;7.50;99.90;;;;;;4967757;28;20614;-63
2021/12/19 03:40:36;;;;;;;19.13;6.40;;;7.50;99.90;;;;;;4974781;28;20329;-63
2021/12/19 03:43:07;;;;;;;19.30;6.37;;;7.50;99.90;;;;;;4974761;28;20277;-63
2021/12/19 03:45:36;;;;;;;22.90;7.30;;;7.50;99.90;;;;;;4974872;28;20603;-63
2021/12/19 03:48:08;;;;;;;14.63;6.07;;;7.50;99.90;;;;;;4963885;28;20333;-63
2021/12/19 03:50:37;;;;;;;20.23;7.33;;;7.50;99.90;;;;;;4955535;28;20246;-63
2021/12/19 03:53:05;;;;;;;19.10;7.23;;;7.50;99.90;;;;;;4955459;28;20694;-63
2021/12/19 03:55:34;;;;;;;20.23;7.07;;;7.50;99.90;;;;;;4955318;28;20715;-63
2021/12/19 03:58:03;;;;;;;24.93;8.37;;;7.50;99.90;;;;;;4966011;28;20317;-63
2021/12/19 04:00:32;;;;;;;14.47;5.30;;;7.50;99.90;;;;;;4970134;28;20247;-63
2021/12/19 04:03:04;;;;;;;13.83;5.43;;;7.50;99.90;;;;;;4972070;28;20191;-63
2021/12/19 04:05:33;;;;;;;14.37;5.47;;;7.40;99.90;;;;;;4976418;28;20572;-63
2021/12/19 04:08:01;;;;;;;15.47;5.87;;;7.40;99.90;;;;;;4962648;28;20278;-62
2021/12/19 04:10:29;;;;;;;13.30;5.40;;;7.40;99.90;;;;;;4954716;28;20267;-63
2021/12/19 04:12:59;;;;;;;10.37;4.93;;;7.40;99.90;;;;;;4954930;28;20666;-63
2021/12/19 04:15:27;;;;;;;14.97;5.00;;;7.30;99.90;;;;;;4954782;28;20626;-63
2021/12/19 04:17:55;;;;;;;10.20;3.47;;;7.30;99.90;;;;;;4954624;28;20239;-63
2021/12/19 04:20:23;;;;;;;8.63;2.70;;;7.20;99.90;;;;;;4954869;28;20695;-63
2021/12/19 04:22:53;;;;;;;7.37;2.20;;;7.20;99.90;;;;;;4964405;28;20281;-63
2021/12/19 04:25:21;;;;;;;6.43;1.73;;;7.20;99.90;;;;;;4974142;28;20238;-63
2021/12/19 04:27:50;;;;;;;4.47;1.57;;;7.20;99.90;;;;;;4973869;28;20231;-63
2021/12/19 04:30:22;;;;;;;9.13;2.30;;;7.20;99.90;;;;;;4971526;28;20595;-63
2021/12/19 04:32:58;;;;;;;5.47;1.57;;;7.20;99.90;;;;;;4973476;28;20242;-63
2021/12/19 04:35:34;;;;;;;3.13;1.48;;;7.20;99.90;;;;;;1092577;28;10022823;-63
2021/12/19 04:41:05;;;;;;;3.60;1.40;;;7.20;99.90;;;;;;4953438;28;20249;-63
2021/12/19 04:44:23;;;;;;;4.17;1.27;;;7.20;99.90;;;;;;4973033;28;20321;-63
2021/12/19 04:52:40;;;;;;;5.17;1.60;;;7.20;99.90;;;;;;4943004;28;20266;-63
2021/12/19 04:55:23;;;;;;;3.70;1.93;;;7.20;99.90;;;;;;4973295;28;20234;-63
2021/12/19 04:57:58;;;;;;;8.07;1.50;;;7.20;99.90;;;;;;4957022;28;20231;-63
2021/12/19 05:00:35;;;;;;;6.67;1.80;;;7.20;99.90;;;;;;4955081;28;20262;-63
2021/12/19 05:03:14;;;;;;;8.73;2.47;;;7.20;99.90;;;;;;4968824;28;20241;-63
2021/12/19 05:05:59;;;;;;;6.97;2.13;;;7.20;99.90;;;;;;4973160;28;20249;-63
2021/12/19 05:14:09;;;;;;;6.83;2.10;;;7.20;99.90;;;;;;4953372;28;20249;-63
2021/12/19 05:16:41;;;;;;;9.47;1.90;;;7.20;99.90;;;;;;4953429;28;20243;-63
2021/12/19 05:19:22;;;;;;;12.33;2.23;;;7.20;99.90;;;;;;4934385;28;20291;-63
2021/12/19 05:21:53;;;;;;;6.23;1.93;;;7.20;99.90;;;;;;4936946;28;20259;-63
2021/12/19 05:27:07;;;;;;;8.03;2.23;;;7.20;99.90;;;;;;4965762;28;20247;-63
2021/12/19 05:29:37;;;;;;;9.60;3.00;;;7.20;99.90;;;;;;4971440;28;20242;-63
2021/12/19 05:32:06;;;;;;;11.17;2.87;;;7.20;99.90;;;;;;4962600;28;20241;-63
2021/12/19 05:34:36;;;;;;;7.47;2.40;;;7.20;99.90;;;;;;4972011;28;20234;-63
2021/12/19 05:45:21;;;;;;;9.47;2.30;;;7.20;99.90;;;;;;4972693;28;20230;-63
2021/12/19 05:47:51;;;;;;;11.90;2.80;;;7.20;99.90;;;;;;4972566;28;20234;-63
2021/12/19 05:50:23;;;;;;;8.17;2.30;;;7.20;99.90;;;;;;4972587;28;20258;-63
2021/12/19 05:52:52;;;;;;;8.57;2.13;;;7.20;99.90;;;;;;4963343;28;20290;-61
2021/12/19 05:55:20;;;;;;;14.73;2.97;;;7.20;99.90;;;;;;4953951;28;20243;-63
2021/12/19 05:57:48;;;;;;;13.37;3.07;;;7.30;99.90;;;;;;4968876;28;20639;-63
2021/12/19 06:00:19;;;;;;;13.63;2.57;;;7.30;99.90;;;;;;4972364;28;20237;-63
2021/12/19 06:02:47;;;;;;;15.17;3.13;;;7.20;99.90;;;;;;4971844;28;20234;-63
2021/12/19 06:05:15;;;;;;;13.50;3.93;;;7.30;99.90;;;;;;4972355;28;20317;-63
2021/12/19 06:07:45;;;;;;;11.10;2.43;;;7.30;99.90;;;;;;4978633;28;20241;-63
2021/12/19 06:10:13;;;;;;;7.73;2.27;;;7.30;99.90;;;;;;4952983;28;20330;-61
2021/12/19 06:12:41;;;;;;;8.37;2.23;;;7.30;99.90;;;;;;4952734;28;20238;-63
2021/12/19 06:15:15;;;;;;;7.10;2.20;;;7.30;99.90;;;;;;4942997;28;20246;-63
2021/12/19 06:17:45;;;;;;;12.50;2.40;;;7.30;99.90;;;;;;4948010;28;20246;-63
2021/12/19 06:20:14;;;;;;;11.03;2.60;;;7.30;99.90;;;;;;4952770;28;20243;-63
2021/12/19 06:22:42;;;;;;;13.33;2.57;;;7.30;99.90;;;;;;4960671;28;20646;-63
2021/12/19 06:25:12;;;;;;;13.30;2.70;;;7.30;99.90;;;;;;4971975;28;20241;-63
2021/12/19 06:27:40;;;;;;;12.50;2.70;;;7.30;99.90;;;;;;4959397;28;20277;-63
2021/12/19 06:30:10;;;;;;;8.93;2.23;;;7.30;99.90;;;;;;4951658;28;20240;-63
2021/12/19 06:32:38;;;;;;;7.67;2.40;;;7.30;99.90;;;;;;4944122;28;20665;-63
2021/12/19 06:35:28;;;;;;;13.19;2.30;;;7.30;99.90;;;;;;1821119;28;10022701;-63
2021/12/19 06:37:57;;;;;;;13.77;2.10;;;7.30;99.90;;;;;;4606009;28;10000582;-63
2021/12/19 06:40:26;;;;;;;12.20;2.30;;;7.30;99.90;;;;;;4942638;28;20492;-62
2021/12/19 06:42:55;;;;;;;9.97;2.20;;;7.30;99.90;;;;;;4943583;28;20238;-63
2021/12/19 06:45:23;;;;;;;12.93;2.63;;;7.30;99.90;;;;;;4942516;28;20294;-63
2021/12/19 06:47:52;;;;;;;10.83;2.47;;;7.30;99.90;;;;;;4945537;28;20266;-62
2021/12/19 06:50:24;;;;;;;13.07;2.37;;;7.30;99.90;;;;;;4949419;28;20328;-63
2021/12/19 06:52:52;;;;;;;12.77;2.50;;;7.30;99.90;;;;;;4954656;28;20239;-63
2021/12/19 06:55:21;;;;;;;9.90;2.10;;;7.30;99.90;;;;;;4946158;28;20258;-63
2021/12/19 06:57:50;;;;;;;8.03;2.33;;;7.30;99.90;;;;;;4945442;28;20239;-63
2021/12/19 07:00:22;;;;;;;7.97;1.80;;;7.30;99.90;;;;;;4944824;28;20631;-63
2021/12/19 07:02:52;;;;;;;8.90;1.90;;;7.30;99.90;;;;;;4950466;28;20247;-63
2021/12/19 07:05:21;;;;;;;13.20;2.50;;;7.30;99.90;;;;;;4943225;28;20235;-63
2021/12/19 07:07:49;;;;;;;8.03;2.20;;;7.30;99.90;;;;;;4944439;28;20570;-63
2021/12/19 07:10:17;;;;;;;11.13;2.10;;;7.30;99.90;;;;;;4940859;28;20232;-63
2021/12/19 07:12:45;;;;;;;11.97;1.93;;;7.30;99.90;;;;;;4941466;28;20243;-63
2021/12/19 07:15:15;;;;;;;8.03;2.10;;;7.30;99.90;;;;;;4952452;28;20235;-63
2021/12/19 07:17:43;;;;;;;7.70;1.70;;;7.30;99.90;;;;;;4951922;28;20334;-63
2021/12/19 07:20:12;;;;;;;10.33;2.03;;;7.30;99.90;;;;;;4959849;28;20247;-63
2021/12/19 07:22:41;;;;;;;16.20;2.63;;;7.40;99.90;;;;;;4963255;28;20255;-63
2021/12/19 07:25:10;;;;;;;9.63;1.90;;;7.40;99.90;;;;;;4952523;28;20707;-63
2021/12/19 07:27:38;;;;;;;11.50;2.33;;;7.40;99.90;;;;;;4951912;28;20273;-63
2021/12/19 07:30:08;;;;;;;9.00;1.60;;;7.40;99.90;;;;;;4945554;28;20231;-63
2021/12/19 07:32:38;;;;;;;9.67;2.23;;;7.40;99.90;;;;;;4945142;28;20249;-63
2021/12/19 07:35:21;;;;;;;11.03;2.40;;;7.40;99.90;;;;;;4952356;28;20675;-63
2021/12/19 07:37:51;;;;;;;10.47;1.77;;;7.40;99.90;;;;;;4964490;28;20293;-63
2021/12/19 07:40:21;;;;;;;10.17;2.07;;;7.40;99.90;;;;;;4971411;28;20321;-63
2021/12/19 07:42:50;;;;;;;14.07;2.43;;;7.40;99.90;;;;;;4970401;28;20788;-63
2021/12/19 07:45:18;;;;;;;11.10;1.73;;;7.40;99.90;;;;;;4950048;28;20250;-63
2021/12/19 07:47:47;;;;;;;13.03;2.30;;;7.40;99.90;;;;;;4955214;28;20278;-63
2021/12/19 07:50:17;;;;;;;9.97;1.80;;;7.50;99.90;;;;;;4954757;28;20275;-63
2021/12/19 07:52:45;;;;;;;7.17;2.10;;;7.40;99.90;;;;;;4962911;28;20720;-63
2021/12/19 07:55:13;;;;;;;8.43;2.00;;;7.40;99.90;;;;;;4974560;28;20263;-63
2021/12/19 07:57:41;;;;;;;11.33;1.90;;;7.40;99.90;;;;;;4959294;28;20607;-63
2021/12/19 08:00:13;;;;;;;12.33;2.10;;;7.40;99.90;;;;;;4955420;28;20602;-63
2021/12/19 08:02:43;;;;;;;16.80;3.63;;;7.50;99.90;;;;;;4962796;28;20268;-63
2021/12/19 08:05:13;;;;;;;8.40;1.83;;;7.50;99.90;;;;;;4974469;28;20245;-63
2021/12/19 08:07:43;;;;;;;9.77;2.07;;;7.50;99.90;;;;;;4974082;28;20281;-63
2021/12/19 08:11:39;;;;;;;10.10;1.97;;;7.50;99.90;;;;;;4965893;28;20239;-63
2021/12/19 08:13:03;;;;;;;8.83;2.00;;;7.50;99.90;;;;;;4964523;28;20242;-63
2021/12/19 08:15:31;;;;;;;12.73;2.23;;;7.50;99.90;;;;;;4956068;28;20274;-63
2021/12/19 08:18:00;;;;;;;12.43;2.27;;;7.50;99.90;;;;;;4944922;28;20244;-63
2021/12/19 08:20:29;;;;;;;12.17;2.00;;;7.50;99.90;;;;;;4955736;28;20238;-63
2021/12/19 08:22:58;;;;;;;10.10;2.03;;;7.50;99.90;;;;;;4950733;28;20323;-63
2021/12/19 08:25:27;;;;;;;12.43;3.00;;;7.60;99.90;;;;;;4950233;28;20600;-63
2021/12/19 08:27:56;;;;;;;10.77;1.80;;;7.60;99.90;;;;;;4948281;28;20323;-63
2021/12/19 08:30:25;;;;;;;10.40;2.37;;;7.60;99.90;;;;;;4944002;28;20239;-61
2021/12/19 08:32:55;;;;;;;8.80;1.97;;;7.70;99.90;;;;;;4946007;28;20235;-62
2021/12/19 08:35:37;;;;;;;10.15;2.25;;;7.70;99.90;;;;;;1025298;28;10022791;-63
2021/12/19 08:38:06;;;;;;;13.23;2.07;;;7.70;99.90;;;;;;4607944;28;10001428;-63
2021/12/19 08:40:34;;;;;;;11.80;2.27;;;7.70;99.90;;;;;;4949079;28;20845;-63
2021/12/19 08:43:02;;;;;;;14.93;2.53;;;7.70;99.90;;;;;;4947534;28;20327;-63
2021/12/19 08:45:30;;;;;;;12.47;2.50;;;7.70;99.90;;;;;;4935068;28;20329;-62
2021/12/19 08:47:58;;;;;;;19.37;2.33;;;7.70;99.90;;;;;;4948321;28;20699;-63
2021/12/19 08:50:27;;;;;;;16.37;2.20;;;7.70;99.90;;;;;;4971872;28;20325;-63
2021/12/19 08:52:56;;;;;;;16.03;2.53;;;7.80;99.90;;;;;;4963274;28;20322;-63
2021/12/19 08:55:24;;;;;;;12.80;2.40;;;7.70;99.90;;;;;;4954371;28;20243;-63
2021/12/19 08:57:53;;;;;;;12.43;2.37;;;7.80;99.90;;;;;;4954376;28;20239;-63
2021/12/19 09:00:22;;;;;;;15.50;2.50;;;7.80;99.90;;;;;;4954394;28;20258;-63
2021/12/19 09:02:54;;;;;;;15.73;2.57;;;7.80;99.90;;;;;;4954174;28;20317;-63
2021/12/19 09:05:24;;;;;;;10.80;2.00;;;7.80;99.90;;;;;;4954030;28;20234;-63
2021/12/19 09:07:52;;;;;;;10.40;2.00;;;7.80;99.90;;;;;;4964272;28;20262;-63
2021/12/19 09:10:23;;;;;;;16.17;2.70;;;7.80;99.90;;;;;;4972946;28;20241;-63
2021/12/19 09:12:51;;;;;;;14.43;2.20;;;7.90;99.90;;;;;;4963738;28;20761;-63
2021/12/19 09:15:20;;;;;;;13.47;2.80;;;7.90;99.90;;;;;;4948205;28;20235;-63
2021/12/19 09:17:49;;;;;;;10.53;2.33;;;7.90;99.90;;;;;;4961536;28;20333;-63
2021/12/19 09:20:17;;;;;;;11.13;2.33;;;7.90;99.90;;;;;;4969418;28;20269;-63
2021/12/19 09:22:46;;;;;;;16.67;3.00;;;7.90;99.90;;;;;;4972565;28;20405;-64
2021/12/19 09:25:20;;;;;;;12.87;2.60;;;8.00;99.90;;;;;;4973058;28;20269;-63
2021/12/19 09:27:50;;;;;;;16.07;2.73;;;8.00;99.90;;;;;;4964020;28;20711;-63
2021/12/19 09:30:19;;;;;;;10.03;2.67;;;8.00;99.90;;;;;;4953748;28;20335;-63
2021/12/19 09:32:51;;;;;;;12.07;2.20;;;8.00;99.90;;;;;;4953582;28;20239;-63
2021/12/19 09:35:19;;;;;;;16.53;2.47;;;8.00;99.90;;;;;;4953787;28;20692;-63
2021/12/19 09:37:47;;;;;;;12.93;2.27;;;8.00;99.90;;;;;;4952172;28;20255;-63
2021/12/19 09:40:20;;;;;;;12.97;2.80;;;8.00;99.90;;;;;;4955027;28;20239;-63
2021/12/19 09:42:51;;;;;;;16.00;2.67;;;8.00;99.90;;;;;;4963291;28;20239;-63
2021/12/19 09:45:21;;;;;;;13.93;2.27;;;8.00;99.90;;;;;;4953292;28;20269;-63
2021/12/19 09:47:49;;;;;;;13.87;2.23;;;8.00;99.90;;;;;;4949814;28;20242;-63
2021/12/19 09:50:17;;;;;;;14.10;2.50;;;8.00;99.90;;;;;;4942754;28;20675;-63
2021/12/19 09:52:46;;;;;;;12.60;2.90;;;8.00;99.90;;;;;;4944483;28;20246;-63
2021/12/19 09:55:17;;;;;;;12.87;2.50;;;8.10;99.90;;;;;;4942903;28;20310;-63
2021/12/19 09:57:45;;;;;;;10.37;2.13;;;8.10;99.90;;;;;;4961387;28;20325;-63
2021/12/19 10:00:16;;;;;;;13.03;2.70;;;8.10;99.90;;;;;;4972026;28;20246;-63
2021/12/19 10:02:44;;;;;;;15.87;2.23;;;8.10;99.90;;;;;;4964007;28;20770;-63
2021/12/19 10:05:21;;;;;;;13.23;2.90;;;8.10;99.90;;;;;;4971487;28;20249;-63
2021/12/19 10:07:52;;;;;;;12.23;2.20;;;8.10;99.90;;;;;;4963220;28;20634;-64
2021/12/19 10:10:27;;;;;;;12.07;2.17;;;8.10;99.90;;;;;;4952938;28;20799;-63
2021/12/19 10:12:58;;;;;;;16.57;2.70;;;8.10;99.90;;;;;;4960131;28;20325;-64
2021/12/19 10:15:34;;;;;;;9.87;2.10;;;8.20;99.90;;;;;;4971967;28;20242;-64
2021/12/19 10:18:06;;;;;;;15.67;2.90;;;8.20;99.90;;;;;;4951175;28;20238;-62
2021/12/19 10:20:49;;;;;;;12.70;2.27;;;8.20;99.90;;;;;;4954795;28;20293;-63
2021/12/19 10:23:20;;;;;;;10.77;2.13;;;8.20;99.90;;;;;;4948980;28;20240;-63
2021/12/19 10:25:59;;;;;;;14.93;2.50;;;8.20;99.90;;;;;;4933780;28;20235;-64
2021/12/19 10:28:28;;;;;;;6.80;2.30;;;8.30;99.90;;;;;;4948299;28;21049;-64
2021/12/19 10:31:03;;;;;;;9.13;2.00;;;8.30;99.90;;;;;;4951317;28;20257;-64
2021/12/19 10:33:36;;;;;;;11.00;2.20;;;8.30;99.90;;;;;;4953426;28;20242;-64
2021/12/19 10:36:09;;;;;;;13.13;2.37;;;8.40;99.90;;;;;;4951396;28;20247;-64
2021/12/19 10:38:42;;;;;;;9.00;2.20;;;8.40;99.90;;;;;;4953407;28;20240;-64
2021/12/19 10:41:13;;;;;;;11.17;2.30;;;8.40;99.90;;;;;;4953051;28;20333;-64
2021/12/19 10:43:46;;;;;;;11.43;2.10;;;8.40;99.90;;;;;;4958284;28;20258;-64
2021/12/19 10:46:16;;;;;;;10.73;2.20;;;8.40;99.90;;;;;;4953727;28;20776;-64
2021/12/19 10:48:45;;;;;;;13.80;2.40;;;8.50;99.90;;;;;;4952099;28;20235;-64
2021/12/19 10:51:15;;;;;;;10.90;2.30;;;8.50;99.90;;;;;;4961038;28;20254;-64
2021/12/19 10:53:46;;;;;;;17.00;2.37;;;8.50;99.90;;;;;;4953931;28;20330;-63
2021/12/19 10:56:17;;;;;;;11.03;3.00;;;8.40;99.90;;;;;;4953031;28;20240;-63
2021/12/19 10:58:51;;;;;;;18.27;2.77;;;8.40;99.90;;;;;;4959420;28;20321;-64
2021/12/19 11:01:26;;;;;;;10.47;2.00;;;8.40;99.90;;;;;;4959981;28;20603;-64
2021/12/19 11:04:01;;;;;;;7.03;2.10;;;8.40;99.90;;;;;;4953442;28;20717;-62
2021/12/19 11:06:40;;;;;;;10.13;2.10;;;8.40;99.90;;;;;;4952133;28;20341;-64
2021/12/19 11:09:12;;;;;;;14.90;2.80;;;8.40;99.90;;;;;;4952591;28;20267;-64
2021/12/19 11:11:48;;;;;;;10.73;2.10;;;8.40;99.90;;;;;;4952294;28;21152;-64
2021/12/19 11:14:20;;;;;;;12.40;1.87;;;8.30;99.90;;;;;;4960051;28;20781;-63
2021/12/19 11:16:51;;;;;;;9.90;2.00;;;8.30;99.90;;;;;;4953900;28;21319;-64
2021/12/19 11:19:19;;;;;;;7.20;1.90;;;8.40;99.90;;;;;;4963423;28;20278;-64
2021/12/19 11:22:09;;;;;;;9.17;1.63;;;8.40;99.90;;;;;;4960352;28;20269;-64
2021/12/19 11:24:37;;;;;;;9.37;1.40;;;8.40;99.90;;;;;;4962398;28;20235;-63
2021/12/19 11:27:08;;;;;;;8.07;1.87;;;8.30;99.90;;;;;;4962925;28;20333;-64
2021/12/19 11:29:37;;;;;;;8.03;1.77;;;8.40;99.90;;;;;;4958019;28;20726;-64
2021/12/19 11:32:08;;;;;;;10.93;1.90;;;8.40;99.90;;;;;;4959243;28;20253;-64
2021/12/19 11:34:56;;;;;;;11.10;1.90;;;8.40;99.90;;;;;;4963379;28;20253;-63
2021/12/19 11:37:27;;;;;;;11.00;2.40;;;8.40;99.90;;;;;;4958924;28;20776;-64
2021/12/19 11:39:57;;;;;;;10.70;2.10;;;8.40;99.90;;;;;;4961756;28;20595;-64
2021/12/19 11:42:32;;;;;;;15.87;2.63;;;8.40;99.90;;;;;;4956761;28;20234;-63
2021/12/19 11:45:20;;;;;;;14.17;2.37;;;8.40;99.90;;;;;;4956734;28;20250;-63
2021/12/19 11:47:54;;;;;;;11.47;2.63;;;8.40;99.90;;;;;;4958529;28;20251;-63
2021/12/19 11:50:27;;;;;;;10.77;1.87;;;8.30;99.90;;;;;;4955563;28;20274;-63
2021/12/19 11:52:57;;;;;;;9.67;2.33;;;8.30;99.90;;;;;;4956005;28;20277;-63
2021/12/19 11:55:37;;;;;;;11.27;2.33;;;8.30;99.90;;;;;;4955115;28;20676;-62
2021/12/19 11:58:18;;;;;;;8.10;2.00;;;8.40;99.90;;;;;;4954519;28;20337;-63
2021/12/19 12:00:55;;;;;;;8.63;1.93;;;8.40;99.90;;;;;;4955989;28;20357;-63
2021/12/19 12:03:31;;;;;;;7.60;2.10;;;8.40;99.90;;;;;;4962168;28;20261;-63
2021/12/19 12:06:32;;;;;;;11.50;1.90;;;8.40;99.90;;;;;;4962076;28;20242;-63
2021/12/19 12:09:29;;;;;;;9.63;2.13;;;8.50;99.90;;;;;;4947933;28;20746;-63
2021/12/19 12:12:19;;;;;;;7.73;2.33;;;8.50;99.90;;;;;;4957371;28;20599;-63
2021/12/19 12:14:59;;;;;;;13.13;2.40;;;8.50;99.90;;;;;;4954967;28;21102;-63
2021/12/19 12:17:36;;;;;;;11.33;2.37;;;8.40;99.90;;;;;;4960267;28;20317;-63
2021/12/19 12:20:16;;;;;;;12.40;1.97;;;8.50;99.90;;;;;;4972095;28;20238;-63
2021/12/19 12:22:59;;;;;;;8.03;2.13;;;8.50;99.90;;;;;;4969453;28;20265;-63
2021/12/19 12:25:34;;;;;;;11.67;2.50;;;8.50;99.90;;;;;;4973665;28;20264;-63
2021/12/19 12:28:09;;;;;;;10.87;2.50;;;8.50;99.90;;;;;;4972931;28;20234;-63
2021/12/19 12:30:45;;;;;;;14.17;3.40;;;8.50;99.90;;;;;;4962845;28;20257;-63
2021/12/19 12:33:15;;;;;;;11.93;3.13;;;8.60;99.90;;;;;;4954614;28;20306;-63
2021/12/19 12:35:47;;;;;;;11.00;2.53;;;8.60;99.90;;;;;;4954294;28;20265;-63
2021/12/19 12:38:17;;;;;;;10.97;2.40;;;8.50;99.90;;;;;;4968974;28;20240;-63
2021/12/19 12:40:53;;;;;;;13.70;2.07;;;8.50;99.90;;;;;;4969968;28;20263;-64
2021/12/19 12:43:23;;;;;;;11.83;2.53;;;8.50;99.90;;;;;;4967389;28;20593;-63
2021/12/19 12:45:56;;;;;;;11.60;2.73;;;8.50;99.90;;;;;;4973967;28;20234;-63
2021/12/19 12:48:37;;;;;;;12.17;2.53;;;8.50;99.90;;;;;;4973194;28;20269;-63
2021/12/19 12:51:08;;;;;;;12.10;2.50;;;8.50;99.90;;;;;;4969308;28;20250;-63
2021/12/19 12:53:39;;;;;;;9.17;2.20;;;8.50;99.90;;;;;;4970301;28;20243;-63
2021/12/19 12:56:17;;;;;;;10.23;2.40;;;8.50;99.90;;;;;;4970987;28;20266;-63
2021/12/19 12:58:47;;;;;;;13.80;3.53;;;8.50;99.90;;;;;;4954031;28;20318;-63
2021/12/19 13:01:22;;;;;;;10.60;2.70;;;8.50;99.90;;;;;;4954207;28;20241;-63
2021/12/19 13:04:08;;;;;;;11.60;2.47;;;8.50;99.90;;;;;;4971002;28;20244;-63
2021/12/19 13:06:40;;;;;;;11.53;2.10;;;8.50;99.90;;;;;;4973085;28;20270;-63
2021/12/19 13:09:13;;;;;;;9.93;2.03;;;8.50;99.90;;;;;;4973347;28;20333;-63
2021/12/19 13:11:42;;;;;;;8.43;2.10;;;8.50;99.90;;;;;;4972836;28;20293;-63
2021/12/19 13:14:12;;;;;;;7.07;1.80;;;8.50;99.90;;;;;;4939799;28;20609;-64
2021/12/19 13:16:45;;;;;;;13.03;2.33;;;8.40;99.90;;;;;;4944423;28;20330;-63
2021/12/19 13:19:51;;;;;;;11.80;2.00;;;8.40;99.90;;;;;;4943298;28;20254;-63
2021/12/19 13:22:24;;;;;;;11.13;2.03;;;8.40;99.90;;;;;;4954375;28;20321;-63
2021/12/19 13:24:54;;;;;;;15.03;2.57;;;8.40;99.90;;;;;;4951852;28;20239;-63
2021/12/19 13:27:24;;;;;;;9.37;2.53;;;8.40;99.90;;;;;;4953307;28;20259;-63
2021/12/19 13:30:11;;;;;;;12.03;2.23;;;8.40;99.90;;;;;;4944615;28;20234;-63
2021/12/19 13:32:43;;;;;;;13.03;2.10;;;8.40;99.90;;;;;;4944697;28;20240;-63
2021/12/19 13:35:17;;;;;;;9.90;2.23;;;8.40;99.90;;;;;;4942582;28;20235;-63
2021/12/19 13:37:56;;;;;;;12.13;2.30;;;8.30;99.90;;;;;;4948980;28;20302;-63
2021/12/19 13:40:26;;;;;;;11.13;2.47;;;8.30;99.90;;;;;;4948913;28;20668;-63
2021/12/19 13:42:59;;;;;;;18.43;2.93;;;8.30;99.90;;;;;;4947858;28;20747;-62
2021/12/19 13:45:35;;;;;;;10.70;2.13;;;8.30;99.90;;;;;;4936373;28;20341;-63
2021/12/19 13:48:06;;;;;;;15.37;2.80;;;8.30;99.90;;;;;;4961746;28;20269;-63
2021/12/19 13:50:40;;;;;;;14.97;3.03;;;8.30;99.90;;;;;;4972147;28;20235;-63
2021/12/19 13:53:11;;;;;;;13.87;2.23;;;8.30;99.90;;;;;;4960913;28;20329;-63
2021/12/19 13:55:52;;;;;;;12.17;2.57;;;8.20;99.90;;;;;;4960193;28;20297;-63
2021/12/19 13:58:22;;;;;;;12.50;2.50;;;8.20;99.90;;;;;;4967334;28;20265;-63
2021/12/19 14:00:52;;;;;;;9.30;2.17;;;8.20;99.90;;;;;;4972442;28;20238;-63